sensor_id;sensor_type;location;lat;lon;timestamp;P1;durP1;ratioP1;P2;durP2;ratioP2
22026;SDS011;11177;50.966;10.070;2023-02-19T00:01:34;1.70;;;1.60;;
22026;SDS011;11177;50.966;10.070;2023-02-19T00:04:04;1.80;;;1.63;;
22026;SDS011;11177;50.966;10.070;2023-02-19T00:06:33;1.70;;;1.60;;
22026;SDS011;11177;50.966;10.070;2023-02-19T00:09:01;1.70;;;1.60;;
22026;SDS011;11177;50.966;10.070;2023-02-19T00:11:29;2.30;;;1.58;;
22026;SDS011;11177;50.966;10.070;2023-02-19T00:14:00;1.70;;;1.60;;
22026;SDS011;11177;50.966;10.070;2023-02-19T00:16:34;1.33;;;1.15;;
22026;SDS011;11177;50.966;10.070;2023-02-19T00:19:04;1.50;;;1.40;;
22026;SDS011;11177;50.966;10.070;2023-02-19T00:21:34;1.33;;;1.10;;
22026;SDS011;11177;50.966;10.070;2023-02-19T00:24:03;1.05;;;1.00;;
22026;SDS011;11177;50.966;10.070;2023-02-19T00:26:32;1.02;;;0.90;;
22026;SDS011;11177;50.966;10.070;2023-02-19T00:29:00;0.73;;;0.70;;
22026;SDS011;11177;50.966;10.070;2023-02-19T00:31:28;0.50;;;0.50;;
22026;SDS011;11177;50.966;10.070;2023-02-19T00:33:59;0.47;;;0.47;;
22026;SDS011;11177;50.966;10.070;2023-02-19T00:36:28;0.60;;;0.60;;
22026;SDS011;11177;50.966;10.070;2023-02-19T00:38:56;1.08;;;0.70;;
22026;SDS011;11177;50.966;10.070;2023-02-19T00:41:23;0.60;;;0.60;;
22026;SDS011;11177;50.966;10.070;2023-02-19T00:43:54;0.80;;;0.80;;
22026;SDS011;11177;50.966;10.070;2023-02-19T00:46:26;0.55;;;0.50;;
22026;SDS011;11177;50.966;10.070;2023-02-19T00:48:55;1.20;;;0.60;;
22026;SDS011;11177;50.966;10.070;2023-02-19T00:51:23;0.80;;;0.60;;
22026;SDS011;11177;50.966;10.070;2023-02-19T00:53:51;0.50;;;0.50;;
22026;SDS011;11177;50.966;10.070;2023-02-19T00:56:19;0.50;;;0.50;;
22026;SDS011;11177;50.966;10.070;2023-02-19T00:58:46;0.65;;;0.60;;
22026;SDS011;11177;50.966;10.070;2023-02-19T01:01:14;0.70;;;0.70;;
22026;SDS011;11177;50.966;10.070;2023-02-19T01:03:42;1.13;;;0.88;;
22026;SDS011;11177;50.966;10.070;2023-02-19T01:06:09;0.88;;;0.75;;
22026;SDS011;11177;50.966;10.070;2023-02-19T01:08:37;2.67;;;0.90;;
22026;SDS011;11177;50.966;10.070;2023-02-19T01:11:05;0.80;;;0.80;;
22026;SDS011;11177;50.966;10.070;2023-02-19T01:13:33;1.63;;;0.90;;
22026;SDS011;11177;50.966;10.070;2023-02-19T01:16:17;1.00;;;0.90;;
22026;SDS011;11177;50.966;10.070;2023-02-19T01:18:46;1.00;;;1.00;;
22026;SDS011;11177;50.966;10.070;2023-02-19T01:21:15;0.80;;;0.80;;
22026;SDS011;11177;50.966;10.070;2023-02-19T01:23:43;1.02;;;0.93;;
22026;SDS011;11177;50.966;10.070;2023-02-19T01:26:15;1.13;;;1.02;;
22026;SDS011;11177;50.966;10.070;2023-02-19T01:28:43;0.98;;;0.80;;
22026;SDS011;11177;50.966;10.070;2023-02-19T01:31:28;0.80;;;0.80;;
22026;SDS011;11177;50.966;10.070;2023-02-19T01:33:57;0.85;;;0.75;;
22026;SDS011;11177;50.966;10.070;2023-02-19T01:36:26;0.70;;;0.70;;
22026;SDS011;11177;50.966;10.070;2023-02-19T01:38:54;0.50;;;0.50;;
22026;SDS011;11177;50.966;10.070;2023-02-19T01:41:22;0.60;;;0.50;;
22026;SDS011;11177;50.966;10.070;2023-02-19T01:43:57;0.40;;;0.40;;
22026;SDS011;11177;50.966;10.070;2023-02-19T01:46:29;0.75;;;0.40;;
22026;SDS011;11177;50.966;10.070;2023-02-19T01:49:01;0.47;;;0.45;;
22026;SDS011;11177;50.966;10.070;2023-02-19T01:51:31;1.98;;;0.40;;
22026;SDS011;11177;50.966;10.070;2023-02-19T01:54:01;0.30;;;0.30;;
22026;SDS011;11177;50.966;10.070;2023-02-19T01:56:32;0.60;;;0.40;;
22026;SDS011;11177;50.966;10.070;2023-02-19T01:59:01;0.73;;;0.40;;
22026;SDS011;11177;50.966;10.070;2023-02-19T02:01:30;0.40;;;0.40;;
22026;SDS011;11177;50.966;10.070;2023-02-19T02:04:04;0.30;;;0.30;;
22026;SDS011;11177;50.966;10.070;2023-02-19T02:06:33;1.00;;;0.40;;
22026;SDS011;11177;50.966;10.070;2023-02-19T02:09:03;0.50;;;0.32;;
22026;SDS011;11177;50.966;10.070;2023-02-19T02:11:51;0.80;;;0.50;;
22026;SDS011;11177;50.966;10.070;2023-02-19T02:14:19;0.50;;;0.50;;
22026;SDS011;11177;50.966;10.070;2023-02-19T02:17:06;0.40;;;0.40;;
22026;SDS011;11177;50.966;10.070;2023-02-19T02:22:40;0.50;;;0.50;;
22026;SDS011;11177;50.966;10.070;2023-02-19T02:31:32;0.40;;;0.40;;
22026;SDS011;11177;50.966;10.070;2023-02-19T02:34:09;0.63;;;0.40;;
22026;SDS011;11177;50.966;10.070;2023-02-19T02:36:41;0.60;;;0.60;;
22026;SDS011;11177;50.966;10.070;2023-02-19T02:39:11;0.90;;;0.50;;
22026;SDS011;11177;50.966;10.070;2023-02-19T02:41:40;0.70;;;0.60;;
22026;SDS011;11177;50.966;10.070;2023-02-19T02:44:08;0.70;;;0.50;;
22026;SDS011;11177;50.966;10.070;2023-02-19T02:46:35;0.50;;;0.50;;
22026;SDS011;11177;50.966;10.070;2023-02-19T02:49:16;2.05;;;0.60;;
22026;SDS011;11177;50.966;10.070;2023-02-19T02:51:46;0.65;;;0.65;;
22026;SDS011;11177;50.966;10.070;2023-02-19T02:54:20;0.50;;;0.50;;
22026;SDS011;11177;50.966;10.070;2023-02-19T02:57:08;1.13;;;0.80;;
22026;SDS011;11177;50.966;10.070;2023-02-19T02:59:40;0.80;;;0.80;;
22026;SDS011;11177;50.966;10.070;2023-02-19T03:02:13;0.70;;;0.70;;
22026;SDS011;11177;50.966;10.070;2023-02-19T03:04:49;1.10;;;0.80;;
22026;SDS011;11177;50.966;10.070;2023-02-19T03:07:41;0.80;;;0.80;;
22026;SDS011;11177;50.966;10.070;2023-02-19T03:10:12;1.38;;;0.70;;
22026;SDS011;11177;50.966;10.070;2023-02-19T03:12:43;1.48;;;0.80;;
22026;SDS011;11177;50.966;10.070;2023-02-19T03:15:31;0.70;;;0.60;;
22026;SDS011;11177;50.966;10.070;2023-02-19T03:18:19;1.02;;;1.00;;
22026;SDS011;11177;50.966;10.070;2023-02-19T03:21:05;1.02;;;1.00;;
22026;SDS011;11177;50.966;10.070;2023-02-19T03:23:32;0.95;;;0.95;;
22026;SDS011;11177;50.966;10.070;2023-02-19T03:26:19;0.82;;;0.82;;
22026;SDS011;11177;50.966;10.070;2023-02-19T03:28:48;1.58;;;1.10;;
22026;SDS011;11177;50.966;10.070;2023-02-19T03:31:35;1.45;;;1.35;;
22026;SDS011;11177;50.966;10.070;2023-02-19T03:34:04;1.98;;;1.40;;
22026;SDS011;11177;50.966;10.070;2023-02-19T03:36:41;1.30;;;1.20;;
22026;SDS011;11177;50.966;10.070;2023-02-19T03:39:10;1.30;;;1.20;;
22026;SDS011;11177;50.966;10.070;2023-02-19T03:41:50;2.47;;;1.60;;
22026;SDS011;11177;50.966;10.070;2023-02-19T03:44:24;2.25;;;1.77;;
22026;SDS011;11177;50.966;10.070;2023-02-19T03:47:18;1.60;;;1.50;;
22026;SDS011;11177;50.966;10.070;2023-02-19T03:50:00;1.58;;;1.20;;
22026;SDS011;11177;50.966;10.070;2023-02-19T03:55:29;1.35;;;1.23;;
22026;SDS011;11177;50.966;10.070;2023-02-19T03:58:22;0.80;;;0.80;;
22026;SDS011;11177;50.966;10.070;2023-02-19T04:00:56;1.80;;;1.00;;
22026;SDS011;11177;50.966;10.070;2023-02-19T04:03:30;0.75;;;0.75;;
22026;SDS011;11177;50.966;10.070;2023-02-19T04:06:02;0.90;;;0.67;;
22026;SDS011;11177;50.966;10.070;2023-02-19T04:08:33;1.80;;;0.70;;
22026;SDS011;11177;50.966;10.070;2023-02-19T04:11:01;0.70;;;0.70;;
22026;SDS011;11177;50.966;10.070;2023-02-19T04:16:48;1.85;;;0.60;;
22026;SDS011;11177;50.966;10.070;2023-02-19T04:19:19;1.42;;;0.70;;
22026;SDS011;11177;50.966;10.070;2023-02-19T04:21:47;0.63;;;0.60;;
22026;SDS011;11177;50.966;10.070;2023-02-19T04:24:18;0.70;;;0.70;;
22026;SDS011;11177;50.966;10.070;2023-02-19T04:26:52;1.25;;;0.90;;
22026;SDS011;11177;50.966;10.070;2023-02-19T04:29:19;1.20;;;1.10;;
22026;SDS011;11177;50.966;10.070;2023-02-19T04:31:46;1.27;;;1.17;;
22026;SDS011;11177;50.966;10.070;2023-02-19T04:34:13;1.38;;;1.27;;
22026;SDS011;11177;50.966;10.070;2023-02-19T04:36:39;1.80;;;1.27;;
22026;SDS011;11177;50.966;10.070;2023-02-19T04:39:06;2.08;;;1.88;;
22026;SDS011;11177;50.966;10.070;2023-02-19T04:41:33;3.08;;;2.03;;
22026;SDS011;11177;50.966;10.070;2023-02-19T04:44:00;2.65;;;2.45;;
22026;SDS011;11177;50.966;10.070;2023-02-19T04:46:27;2.25;;;2.05;;
22026;SDS011;11177;50.966;10.070;2023-02-19T04:48:54;2.28;;;2.03;;
22026;SDS011;11177;50.966;10.070;2023-02-19T04:51:21;3.00;;;2.60;;
22026;SDS011;11177;50.966;10.070;2023-02-19T04:53:48;2.63;;;2.30;;
22026;SDS011;11177;50.966;10.070;2023-02-19T04:56:15;2.60;;;2.40;;
22026;SDS011;11177;50.966;10.070;2023-02-19T04:58:42;3.13;;;2.53;;
22026;SDS011;11177;50.966;10.070;2023-02-19T05:01:10;2.75;;;2.47;;
22026;SDS011;11177;50.966;10.070;2023-02-19T05:03:38;3.50;;;3.10;;
22026;SDS011;11177;50.966;10.070;2023-02-19T05:06:05;3.38;;;2.70;;
22026;SDS011;11177;50.966;10.070;2023-02-19T05:08:34;3.50;;;2.80;;
22026;SDS011;11177;50.966;10.070;2023-02-19T05:11:01;4.00;;;2.50;;
22026;SDS011;11177;50.966;10.070;2023-02-19T05:13:29;5.20;;;2.90;;
22026;SDS011;11177;50.966;10.070;2023-02-19T05:15:58;6.28;;;3.10;;
22026;SDS011;11177;50.966;10.070;2023-02-19T05:18:26;3.70;;;3.00;;
22026;SDS011;11177;50.966;10.070;2023-02-19T05:20:53;4.30;;;3.22;;
22026;SDS011;11177;50.966;10.070;2023-02-19T05:23:20;3.88;;;2.08;;
22026;SDS011;11177;50.966;10.070;2023-02-19T05:25:47;2.55;;;2.15;;
22026;SDS011;11177;50.966;10.070;2023-02-19T05:28:14;5.18;;;2.13;;
22026;SDS011;11177;50.966;10.070;2023-02-19T05:30:45;1.10;;;1.00;;
22026;SDS011;11177;50.966;10.070;2023-02-19T05:33:17;1.02;;;0.93;;
22026;SDS011;11177;50.966;10.070;2023-02-19T05:35:45;1.38;;;1.00;;
22026;SDS011;11177;50.966;10.070;2023-02-19T05:38:14;1.13;;;0.80;;
22026;SDS011;11177;50.966;10.070;2023-02-19T05:40:41;1.92;;;0.85;;
22026;SDS011;11177;50.966;10.070;2023-02-19T05:43:08;0.80;;;0.80;;
22026;SDS011;11177;50.966;10.070;2023-02-19T05:45:35;1.20;;;1.10;;
22026;SDS011;11177;50.966;10.070;2023-02-19T05:48:03;1.30;;;1.20;;
22026;SDS011;11177;50.966;10.070;2023-02-19T05:50:30;2.42;;;1.70;;
22026;SDS011;11177;50.966;10.070;2023-02-19T05:53:04;2.35;;;1.70;;
22026;SDS011;11177;50.966;10.070;2023-02-19T05:55:34;3.30;;;2.03;;
22026;SDS011;11177;50.966;10.070;2023-02-19T05:58:02;2.88;;;2.13;;
22026;SDS011;11177;50.966;10.070;2023-02-19T06:00:29;2.67;;;2.35;;
22026;SDS011;11177;50.966;10.070;2023-02-19T06:02:58;3.15;;;2.15;;
22026;SDS011;11177;50.966;10.070;2023-02-19T06:05:24;2.15;;;1.88;;
22026;SDS011;11177;50.966;10.070;2023-02-19T06:07:51;2.03;;;1.83;;
22026;SDS011;11177;50.966;10.070;2023-02-19T06:10:18;2.70;;;2.50;;
22026;SDS011;11177;50.966;10.070;2023-02-19T06:12:45;4.40;;;2.00;;
22026;SDS011;11177;50.966;10.070;2023-02-19T06:15:12;2.10;;;1.88;;
22026;SDS011;11177;50.966;10.070;2023-02-19T06:17:39;2.60;;;2.08;;
22026;SDS011;11177;50.966;10.070;2023-02-19T06:20:06;2.55;;;2.05;;
22026;SDS011;11177;50.966;10.070;2023-02-19T06:22:33;2.08;;;1.80;;
22026;SDS011;11177;50.966;10.070;2023-02-19T06:24:59;1.90;;;1.70;;
22026;SDS011;11177;50.966;10.070;2023-02-19T06:27:26;2.78;;;2.00;;
22026;SDS011;11177;50.966;10.070;2023-02-19T06:29:53;2.00;;;1.80;;
22026;SDS011;11177;50.966;10.070;2023-02-19T06:32:20;2.03;;;1.83;;
22026;SDS011;11177;50.966;10.070;2023-02-19T06:34:47;4.10;;;2.10;;
22026;SDS011;11177;50.966;10.070;2023-02-19T06:37:14;2.17;;;1.85;;
22026;SDS011;11177;50.966;10.070;2023-02-19T06:39:40;2.20;;;2.00;;
22026;SDS011;11177;50.966;10.070;2023-02-19T06:42:07;1.92;;;1.75;;
22026;SDS011;11177;50.966;10.070;2023-02-19T06:44:34;2.50;;;1.92;;
22026;SDS011;11177;50.966;10.070;2023-02-19T06:47:00;3.45;;;2.00;;
22026;SDS011;11177;50.966;10.070;2023-02-19T06:49:27;2.67;;;1.85;;
22026;SDS011;11177;50.966;10.070;2023-02-19T06:51:54;3.17;;;2.05;;
22026;SDS011;11177;50.966;10.070;2023-02-19T06:54:21;1.67;;;1.45;;
22026;SDS011;11177;50.966;10.070;2023-02-19T06:56:47;2.28;;;1.80;;
22026;SDS011;11177;50.966;10.070;2023-02-19T06:59:14;1.80;;;1.50;;
22026;SDS011;11177;50.966;10.070;2023-02-19T07:01:44;1.70;;;1.35;;
22026;SDS011;11177;50.966;10.070;2023-02-19T07:04:11;1.60;;;1.30;;
22026;SDS011;11177;50.966;10.070;2023-02-19T07:06:38;2.00;;;1.50;;
22026;SDS011;11177;50.966;10.070;2023-02-19T07:09:06;2.10;;;1.30;;
22026;SDS011;11177;50.966;10.070;2023-02-19T07:11:33;1.70;;;1.42;;
22026;SDS011;11177;50.966;10.070;2023-02-19T07:14:02;1.50;;;1.38;;
22026;SDS011;11177;50.966;10.070;2023-02-19T07:16:33;1.90;;;1.52;;
22026;SDS011;11177;50.966;10.070;2023-02-19T07:18:59;2.90;;;1.65;;
22026;SDS011;11177;50.966;10.070;2023-02-19T07:21:27;1.33;;;1.23;;
22026;SDS011;11177;50.966;10.070;2023-02-19T07:23:54;1.25;;;1.13;;
22026;SDS011;11177;50.966;10.070;2023-02-19T07:26:21;1.65;;;1.17;;
22026;SDS011;11177;50.966;10.070;2023-02-19T07:28:48;1.20;;;1.10;;
22026;SDS011;11177;50.966;10.070;2023-02-19T07:31:16;1.42;;;1.30;;
22026;SDS011;11177;50.966;10.070;2023-02-19T07:33:44;3.05;;;1.50;;
22026;SDS011;11177;50.966;10.070;2023-02-19T07:36:12;1.77;;;1.50;;
22026;SDS011;11177;50.966;10.070;2023-02-19T07:38:39;1.83;;;1.60;;
22026;SDS011;11177;50.966;10.070;2023-02-19T07:41:06;3.08;;;1.70;;
22026;SDS011;11177;50.966;10.070;2023-02-19T07:43:34;3.63;;;1.80;;
22026;SDS011;11177;50.966;10.070;2023-02-19T07:46:06;2.42;;;1.85;;
22026;SDS011;11177;50.966;10.070;2023-02-19T07:48:35;1.80;;;1.70;;
22026;SDS011;11177;50.966;10.070;2023-02-19T07:51:02;3.08;;;2.20;;
22026;SDS011;11177;50.966;10.070;2023-02-19T07:53:31;4.13;;;2.10;;
22026;SDS011;11177;50.966;10.070;2023-02-19T07:55:59;4.38;;;2.22;;
22026;SDS011;11177;50.966;10.070;2023-02-19T07:58:27;3.42;;;2.35;;
22026;SDS011;11177;50.966;10.070;2023-02-19T08:00:55;3.30;;;2.40;;
22026;SDS011;11177;50.966;10.070;2023-02-19T08:03:22;3.25;;;2.40;;
22026;SDS011;11177;50.966;10.070;2023-02-19T08:05:49;3.97;;;2.55;;
22026;SDS011;11177;50.966;10.070;2023-02-19T08:08:19;4.25;;;2.70;;
22026;SDS011;11177;50.966;10.070;2023-02-19T08:10:46;4.88;;;2.72;;
22026;SDS011;11177;50.966;10.070;2023-02-19T08:13:31;3.47;;;2.50;;
22026;SDS011;11177;50.966;10.070;2023-02-19T08:19:02;3.03;;;2.50;;
22026;SDS011;11177;50.966;10.070;2023-02-19T08:21:28;5.88;;;2.40;;
22026;SDS011;11177;50.966;10.070;2023-02-19T08:23:58;3.08;;;2.42;;
22026;SDS011;11177;50.966;10.070;2023-02-19T08:26:24;2.08;;;1.77;;
22026;SDS011;11177;50.966;10.070;2023-02-19T08:28:51;3.05;;;2.03;;
22026;SDS011;11177;50.966;10.070;2023-02-19T08:31:18;2.33;;;1.90;;
22026;SDS011;11177;50.966;10.070;2023-02-19T08:33:44;3.25;;;1.70;;
22026;SDS011;11177;50.966;10.070;2023-02-19T08:36:11;2.30;;;1.80;;
22026;SDS011;11177;50.966;10.070;2023-02-19T08:38:38;3.92;;;1.60;;
22026;SDS011;11177;50.966;10.070;2023-02-19T08:41:05;2.08;;;1.65;;
22026;SDS011;11177;50.966;10.070;2023-02-19T08:43:33;3.00;;;2.05;;
22026;SDS011;11177;50.966;10.070;2023-02-19T08:46:00;2.78;;;1.88;;
22026;SDS011;11177;50.966;10.070;2023-02-19T08:48:27;2.40;;;1.90;;
22026;SDS011;11177;50.966;10.070;2023-02-19T08:50:58;4.07;;;1.80;;
22026;SDS011;11177;50.966;10.070;2023-02-19T08:53:26;3.45;;;1.65;;
22026;SDS011;11177;50.966;10.070;2023-02-19T08:55:52;2.25;;;1.70;;
22026;SDS011;11177;50.966;10.070;2023-02-19T08:58:19;2.75;;;1.80;;
22026;SDS011;11177;50.966;10.070;2023-02-19T09:00:47;3.30;;;1.73;;
22026;SDS011;11177;50.966;10.070;2023-02-19T09:03:14;2.60;;;1.80;;
22026;SDS011;11177;50.966;10.070;2023-02-19T09:05:41;3.40;;;1.77;;
22026;SDS011;11177;50.966;10.070;2023-02-19T09:08:08;2.25;;;1.60;;
22026;SDS011;11177;50.966;10.070;2023-02-19T09:10:34;2.72;;;1.73;;
22026;SDS011;11177;50.966;10.070;2023-02-19T09:13:01;2.95;;;1.85;;
22026;SDS011;11177;50.966;10.070;2023-02-19T09:15:28;2.20;;;1.77;;
22026;SDS011;11177;50.966;10.070;2023-02-19T09:17:55;2.08;;;1.65;;
22026;SDS011;11177;50.966;10.070;2023-02-19T09:20:22;2.33;;;1.60;;
22026;SDS011;11177;50.966;10.070;2023-02-19T09:22:48;2.40;;;1.55;;
22026;SDS011;11177;50.966;10.070;2023-02-19T09:25:15;3.35;;;2.08;;
22026;SDS011;11177;50.966;10.070;2023-02-19T09:27:42;3.00;;;1.80;;
22026;SDS011;11177;50.966;10.070;2023-02-19T09:30:09;2.55;;;1.80;;
22026;SDS011;11177;50.966;10.070;2023-02-19T09:32:36;5.47;;;1.50;;
22026;SDS011;11177;50.966;10.070;2023-02-19T09:35:03;1.73;;;1.50;;
22026;SDS011;11177;50.966;10.070;2023-02-19T09:37:30;2.22;;;1.70;;
22026;SDS011;11177;50.966;10.070;2023-02-19T09:39:59;2.22;;;1.50;;
22026;SDS011;11177;50.966;10.070;2023-02-19T09:42:26;1.67;;;1.40;;
22026;SDS011;11177;50.966;10.070;2023-02-19T09:44:56;3.70;;;1.65;;
22026;SDS011;11177;50.966;10.070;2023-02-19T09:47:25;3.70;;;1.50;;
22026;SDS011;11177;50.966;10.070;2023-02-19T09:49:54;1.92;;;1.25;;
22026;SDS011;11177;50.966;10.070;2023-02-19T09:52:28;2.15;;;1.40;;
22026;SDS011;11177;50.966;10.070;2023-02-19T09:58:07;4.40;;;1.48;;
22026;SDS011;11177;50.966;10.070;2023-02-19T10:00:51;2.40;;;1.33;;
22026;SDS011;11177;50.966;10.070;2023-02-19T10:03:30;1.35;;;1.08;;
22026;SDS011;11177;50.966;10.070;2023-02-19T10:06:05;1.48;;;1.13;;
22026;SDS011;11177;50.966;10.070;2023-02-19T10:08:38;1.15;;;1.02;;
22026;SDS011;11177;50.966;10.070;2023-02-19T10:11:06;1.17;;;1.00;;
22026;SDS011;11177;50.966;10.070;2023-02-19T10:13:34;1.85;;;0.70;;
22026;SDS011;11177;50.966;10.070;2023-02-19T10:16:04;1.13;;;0.70;;
22026;SDS011;11177;50.966;10.070;2023-02-19T10:18:42;0.73;;;0.50;;
22026;SDS011;11177;50.966;10.070;2023-02-19T10:21:11;1.17;;;0.63;;
22026;SDS011;11177;50.966;10.070;2023-02-19T10:23:42;1.17;;;0.50;;
22026;SDS011;11177;50.966;10.070;2023-02-19T10:26:09;0.82;;;0.40;;
22026;SDS011;11177;50.966;10.070;2023-02-19T10:28:36;0.50;;;0.43;;
22026;SDS011;11177;50.966;10.070;2023-02-19T10:31:04;0.55;;;0.40;;
22026;SDS011;11177;50.966;10.070;2023-02-19T10:33:47;1.77;;;0.50;;
22026;SDS011;11177;50.966;10.070;2023-02-19T10:36:24;0.90;;;0.50;;
22026;SDS011;11177;50.966;10.070;2023-02-19T10:38:58;0.73;;;0.73;;
22026;SDS011;11177;50.966;10.070;2023-02-19T10:41:26;2.58;;;0.60;;
22026;SDS011;11177;50.966;10.070;2023-02-19T10:43:54;1.65;;;0.85;;
22026;SDS011;11177;50.966;10.070;2023-02-19T10:46:28;0.90;;;0.90;;
22026;SDS011;11177;50.966;10.070;2023-02-19T10:49:05;1.70;;;0.52;;
22026;SDS011;11177;50.966;10.070;2023-02-19T10:51:40;0.50;;;0.50;;
22026;SDS011;11177;50.966;10.070;2023-02-19T10:54:18;1.02;;;0.60;;
22026;SDS011;11177;50.966;10.070;2023-02-19T10:56:49;0.85;;;0.60;;
22026;SDS011;11177;50.966;10.070;2023-02-19T10:59:26;8.50;;;3.78;;
22026;SDS011;11177;50.966;10.070;2023-02-19T11:04:21;3.00;;;2.40;;
22026;SDS011;11177;50.966;10.070;2023-02-19T11:06:48;8.13;;;4.30;;
22026;SDS011;11177;50.966;10.070;2023-02-19T11:09:36;10.35;;;6.70;;
22026;SDS011;11177;50.966;10.070;2023-02-19T11:12:07;4.80;;;3.88;;
22026;SDS011;11177;50.966;10.070;2023-02-19T11:14:34;2.63;;;2.42;;
22026;SDS011;11177;50.966;10.070;2023-02-19T11:17:01;2.65;;;2.10;;
22026;SDS011;11177;50.966;10.070;2023-02-19T11:19:39;1.00;;;0.90;;
22026;SDS011;11177;50.966;10.070;2023-02-19T11:22:18;1.20;;;1.10;;
22026;SDS011;11177;50.966;10.070;2023-02-19T11:24:48;1.20;;;1.02;;
22026;SDS011;11177;50.966;10.070;2023-02-19T11:27:20;6.20;;;4.50;;
22026;SDS011;11177;50.966;10.070;2023-02-19T11:29:48;5.68;;;3.70;;
22026;SDS011;11177;50.966;10.070;2023-02-19T11:35:13;1.35;;;0.50;;
22026;SDS011;11177;50.966;10.070;2023-02-19T11:40:20;1.77;;;0.57;;
22026;SDS011;11177;50.966;10.070;2023-02-19T11:42:52;0.43;;;0.43;;
22026;SDS011;11177;50.966;10.070;2023-02-19T11:45:47;0.55;;;0.40;;
22026;SDS011;11177;50.966;10.070;2023-02-19T11:51:21;0.50;;;0.32;;
22026;SDS011;11177;50.966;10.070;2023-02-19T11:54:01;0.40;;;0.40;;
22026;SDS011;11177;50.966;10.070;2023-02-19T11:56:35;0.40;;;0.40;;
22026;SDS011;11177;50.966;10.070;2023-02-19T11:59:04;0.50;;;0.50;;
22026;SDS011;11177;50.966;10.070;2023-02-19T12:01:43;0.82;;;0.35;;
22026;SDS011;11177;50.966;10.070;2023-02-19T12:13:49;0.55;;;0.43;;
22026;SDS011;11177;50.966;10.070;2023-02-19T12:16:20;0.65;;;0.38;;
22026;SDS011;11177;50.966;10.070;2023-02-19T12:22:26;1.17;;;0.60;;
22026;SDS011;11177;50.966;10.070;2023-02-19T12:25:05;0.40;;;0.40;;
22026;SDS011;11177;50.966;10.070;2023-02-19T12:31:29;0.85;;;0.40;;
22026;SDS011;11177;50.966;10.070;2023-02-19T12:37:01;0.80;;;0.73;;
22026;SDS011;11177;50.966;10.070;2023-02-19T12:39:45;0.82;;;0.82;;
22026;SDS011;11177;50.966;10.070;2023-02-19T12:42:35;3.17;;;0.80;;
22026;SDS011;11177;50.966;10.070;2023-02-19T12:45:16;2.33;;;1.20;;
22026;SDS011;11177;50.966;10.070;2023-02-19T12:51:25;0.60;;;0.40;;
22026;SDS011;11177;50.966;10.070;2023-02-19T12:54:13;1.00;;;0.30;;
22026;SDS011;11177;50.966;10.070;2023-02-19T12:59:58;5.43;;;0.60;;
22026;SDS011;11177;50.966;10.070;2023-02-19T13:02:40;1.20;;;0.40;;
22026;SDS011;11177;50.966;10.070;2023-02-19T13:05:14;0.85;;;0.30;;
22026;SDS011;11177;50.966;10.070;2023-02-19T13:08:04;2.38;;;0.40;;
22026;SDS011;11177;50.966;10.070;2023-02-19T13:10:35;0.73;;;0.60;;
22026;SDS011;11177;50.966;10.070;2023-02-19T13:13:09;1.20;;;1.10;;
22026;SDS011;11177;50.966;10.070;2023-02-19T13:15:44;0.75;;;0.52;;
22026;SDS011;11177;50.966;10.070;2023-02-19T13:18:15;0.30;;;0.30;;
22026;SDS011;11177;50.966;10.070;2023-02-19T13:20:45;0.82;;;0.30;;
22026;SDS011;11177;50.966;10.070;2023-02-19T13:23:20;1.20;;;0.30;;
22026;SDS011;11177;50.966;10.070;2023-02-19T13:26:13;0.85;;;0.40;;
22026;SDS011;11177;50.966;10.070;2023-02-19T13:32:00;0.40;;;0.32;;
22026;SDS011;11177;50.966;10.070;2023-02-19T13:37:46;0.30;;;0.30;;
22026;SDS011;11177;50.966;10.070;2023-02-19T13:40:23;1.20;;;0.57;;
22026;SDS011;11177;50.966;10.070;2023-02-19T13:42:54;0.35;;;0.30;;
22026;SDS011;11177;50.966;10.070;2023-02-19T13:45:43;0.20;;;0.20;;
22026;SDS011;11177;50.966;10.070;2023-02-19T13:48:14;0.30;;;0.30;;
22026;SDS011;11177;50.966;10.070;2023-02-19T13:50:50;2.30;;;0.32;;
22026;SDS011;11177;50.966;10.070;2023-02-19T13:54:12;0.75;;;0.40;;
22026;SDS011;11177;50.966;10.070;2023-02-19T13:56:42;0.30;;;0.30;;
22026;SDS011;11177;50.966;10.070;2023-02-19T13:59:20;0.25;;;0.25;;
22026;SDS011;11177;50.966;10.070;2023-02-19T14:02:07;0.30;;;0.30;;
22026;SDS011;11177;50.966;10.070;2023-02-19T14:04:41;0.32;;;0.30;;
22026;SDS011;11177;50.966;10.070;2023-02-19T14:09:48;0.20;;;0.20;;
22026;SDS011;11177;50.966;10.070;2023-02-19T14:12:20;0.40;;;0.30;;
22026;SDS011;11177;50.966;10.070;2023-02-19T14:14:52;0.68;;;0.20;;
22026;SDS011;11177;50.966;10.070;2023-02-19T14:17:26;0.20;;;0.20;;
22026;SDS011;11177;50.966;10.070;2023-02-19T14:23:00;0.60;;;0.40;;
22026;SDS011;11177;50.966;10.070;2023-02-19T14:25:47;1.98;;;0.30;;
22026;SDS011;11177;50.966;10.070;2023-02-19T14:28:21;0.68;;;0.43;;
22026;SDS011;11177;50.966;10.070;2023-02-19T14:30:58;0.40;;;0.30;;
22026;SDS011;11177;50.966;10.070;2023-02-19T14:33:32;1.30;;;0.40;;
22026;SDS011;11177;50.966;10.070;2023-02-19T14:39:06;2.53;;;1.70;;
22026;SDS011;11177;50.966;10.070;2023-02-19T14:41:50;7.40;;;4.47;;
22026;SDS011;11177;50.966;10.070;2023-02-19T14:44:20;3.88;;;2.40;;
22026;SDS011;11177;50.966;10.070;2023-02-19T14:47:02;1.20;;;0.73;;
22026;SDS011;11177;50.966;10.070;2023-02-19T14:49:37;1.38;;;0.52;;
22026;SDS011;11177;50.966;10.070;2023-02-19T14:52:13;3.25;;;1.70;;
22026;SDS011;11177;50.966;10.070;2023-02-19T14:54:48;5.90;;;4.72;;
22026;SDS011;11177;50.966;10.070;2023-02-19T14:57:25;7.85;;;6.88;;
22026;SDS011;11177;50.966;10.070;2023-02-19T15:00:21;0.90;;;0.90;;
22026;SDS011;11177;50.966;10.070;2023-02-19T15:02:52;0.40;;;0.40;;
22026;SDS011;11177;50.966;10.070;2023-02-19T15:05:34;2.15;;;1.63;;
22026;SDS011;11177;50.966;10.070;2023-02-19T15:08:05;0.50;;;0.50;;
22026;SDS011;11177;50.966;10.070;2023-02-19T15:10:33;0.50;;;0.50;;
22026;SDS011;11177;50.966;10.070;2023-02-19T15:13:01;0.68;;;0.43;;
22026;SDS011;11177;50.966;10.070;2023-02-19T15:15:31;0.55;;;0.50;;
22026;SDS011;11177;50.966;10.070;2023-02-19T15:18:00;0.68;;;0.68;;
22026;SDS011;11177;50.966;10.070;2023-02-19T15:20:30;1.27;;;0.82;;
22026;SDS011;11177;50.966;10.070;2023-02-19T15:22:59;1.90;;;1.60;;
22026;SDS011;11177;50.966;10.070;2023-02-19T15:25:29;3.05;;;1.80;;
22026;SDS011;11177;50.966;10.070;2023-02-19T15:28:26;3.38;;;2.00;;
22026;SDS011;11177;50.966;10.070;2023-02-19T15:31:05;88.00;;;27.58;;
22026;SDS011;11177;50.966;10.070;2023-02-19T15:33:36;65.80;;;23.73;;
22026;SDS011;11177;50.966;10.070;2023-02-19T15:36:07;8.00;;;3.88;;
22026;SDS011;11177;50.966;10.070;2023-02-19T15:38:34;7.65;;;5.25;;
22026;SDS011;11177;50.966;10.070;2023-02-19T15:41:02;3.30;;;2.22;;
22026;SDS011;11177;50.966;10.070;2023-02-19T15:43:40;9.13;;;5.30;;
22026;SDS011;11177;50.966;10.070;2023-02-19T15:46:17;25.45;;;11.45;;
22026;SDS011;11177;50.966;10.070;2023-02-19T15:49:10;37.67;;;15.07;;
22026;SDS011;11177;50.966;10.070;2023-02-19T15:51:43;12.93;;;6.70;;
22026;SDS011;11177;50.966;10.070;2023-02-19T15:55:37;22.00;;;11.15;;
22026;SDS011;11177;50.966;10.070;2023-02-19T15:57:16;12.80;;;7.13;;
22026;SDS011;11177;50.966;10.070;2023-02-19T15:59:48;21.98;;;10.32;;
22026;SDS011;11177;50.966;10.070;2023-02-19T16:02:19;36.78;;;15.32;;
22026;SDS011;11177;50.966;10.070;2023-02-19T16:04:46;28.35;;;13.57;;
22026;SDS011;11177;50.966;10.070;2023-02-19T16:07:26;8.32;;;4.85;;
22026;SDS011;11177;50.966;10.070;2023-02-19T16:10:31;7.20;;;4.60;;
22026;SDS011;11177;50.966;10.070;2023-02-19T16:13:03;5.50;;;1.58;;
22026;SDS011;11177;50.966;10.070;2023-02-19T16:15:31;1.48;;;1.38;;